createdAt,value
2016-11-26T00:00:42.506Z,0
2016-11-26T00:01:42.554Z,0
2016-11-26T00:02:42.533Z,0
2016-11-26T00:03:42.673Z,0
2016-11-26T00:04:42.459Z,0
2016-11-26T00:05:42.442Z,0
2016-11-26T00:06:43.493Z,0
2016-11-26T00:07:42.552Z,0
2016-11-26T00:08:42.631Z,0
2016-11-26T00:09:43.288Z,0
2016-11-26T00:10:42.722Z,0
2016-11-26T00:11:43.199Z,0
2016-11-26T00:12:42.658Z,0
2016-11-26T00:13:42.532Z,0
2016-11-26T00:14:42.642Z,0
2016-11-26T00:15:42.597Z,0
2016-11-26T00:16:42.561Z,0
2016-11-26T00:17:42.536Z,0
2016-11-26T00:18:42.616Z,0
2016-11-26T00:19:42.636Z,0
2016-11-26T00:20:42.485Z,0
2016-11-26T00:21:42.536Z,0
2016-11-26T00:22:42.447Z,0
2016-11-26T00:23:42.452Z,0
2016-11-26T00:24:42.711Z,0
2016-11-26T00:25:42.452Z,0
2016-11-26T00:26:42.429Z,0
2016-11-26T00:27:42.404Z,0
2016-11-26T00:28:42.465Z,0
2016-11-26T00:29:42.532Z,0
2016-11-26T00:30:42.430Z,0
2016-11-26T00:31:42.462Z,0
2016-11-26T00:32:49.516Z,0
2016-11-26T00:33:42.406Z,0
2016-11-26T00:34:42.378Z,0
2016-11-26T00:35:42.398Z,0
2016-11-26T00:36:42.394Z,0
2016-11-26T00:37:42.398Z,0
2016-11-26T00:38:42.420Z,0
2016-11-26T00:39:42.426Z,0
2016-11-26T00:40:42.400Z,0
2016-11-26T00:41:42.401Z,0
2016-11-26T00:42:42.405Z,0
2016-11-26T00:43:42.414Z,0
2016-11-26T00:44:42.424Z,0
2016-11-26T00:45:42.420Z,0
2016-11-26T00:46:42.418Z,0
2016-11-26T00:47:42.405Z,0
2016-11-26T00:48:42.438Z,0
2016-11-26T00:49:42.428Z,0
2016-11-26T00:50:42.387Z,0
2016-11-26T00:51:42.404Z,0
2016-11-26T00:52:42.453Z,0
2016-11-26T00:53:42.443Z,0
2016-11-26T00:54:42.377Z,0
2016-11-26T00:55:42.406Z,0
2016-11-26T00:56:42.429Z,0
2016-11-26T00:57:42.401Z,0
2016-11-26T00:58:42.413Z,0
2016-11-26T00:59:42.423Z,0
2016-11-26T01:00:42.414Z,0
2016-11-26T01:01:42.397Z,0
2016-11-26T01:02:42.428Z,0
2016-11-26T01:03:42.411Z,0
2016-11-26T01:04:42.428Z,0
2016-11-26T01:05:42.455Z,0
2016-11-26T01:06:42.419Z,0
2016-11-26T01:07:42.409Z,0
2016-11-26T01:08:42.417Z,0
2016-11-26T01:09:42.462Z,0
2016-11-26T01:10:42.429Z,0
2016-11-26T01:11:42.403Z,0
2016-11-26T01:12:42.442Z,0
2016-11-26T01:13:42.427Z,0
2016-11-26T01:14:42.450Z,0
2016-11-26T01:15:42.406Z,0
2016-11-26T01:16:42.414Z,0
2016-11-26T01:17:42.404Z,0
2016-11-26T01:18:42.429Z,0
2016-11-26T01:19:42.414Z,0
2016-11-26T01:20:42.426Z,0
2016-11-26T01:21:42.425Z,0
2016-11-26T01:22:42.432Z,0
2016-11-26T01:23:42.432Z,0
2016-11-26T01:24:42.443Z,0
2016-11-26T01:25:42.424Z,0
2016-11-26T01:26:42.437Z,0
2016-11-26T01:27:42.408Z,0
2016-11-26T01:28:42.965Z,0
2016-11-26T01:29:42.429Z,0
2016-11-26T01:30:42.475Z,0
2016-11-26T01:31:42.435Z,0
2016-11-26T01:32:42.448Z,0
2016-11-26T01:33:42.446Z,0
2016-11-26T01:34:42.424Z,0
2016-11-26T01:35:42.439Z,0
2016-11-26T01:36:42.433Z,0
2016-11-26T01:37:42.420Z,0
2016-11-26T01:38:42.445Z,0
2016-11-26T01:39:42.422Z,0
2016-11-26T01:40:42.436Z,0
2016-11-26T01:41:42.432Z,0
2016-11-26T01:42:42.424Z,0
2016-11-26T01:43:42.480Z,0
2016-11-26T01:44:42.455Z,0
2016-11-26T01:45:42.429Z,0
2016-11-26T01:46:42.436Z,0
2016-11-26T01:47:42.467Z,0
2016-11-26T01:48:42.418Z,0
2016-11-26T01:49:42.467Z,0
2016-11-26T01:50:42.425Z,0
2016-11-26T01:51:42.411Z,0
2016-11-26T01:52:42.417Z,0
2016-11-26T01:53:42.444Z,0
2016-11-26T01:54:42.406Z,0
2016-11-26T01:55:42.422Z,0
2016-11-26T01:56:42.414Z,0
2016-11-26T01:57:42.458Z,0
2016-11-26T01:58:42.453Z,0
2016-11-26T01:59:42.458Z,0
2016-11-26T02:00:42.448Z,0
2016-11-26T02:01:42.472Z,0
2016-11-26T02:02:42.464Z,0
2016-11-26T02:03:42.439Z,0
2016-11-26T02:04:42.449Z,0
2016-11-26T02:05:42.456Z,0
2016-11-26T02:06:42.470Z,0
2016-11-26T02:07:42.441Z,0
2016-11-26T02:08:42.464Z,0
2016-11-26T02:09:42.454Z,0
2016-11-26T02:10:42.441Z,0
2016-11-26T02:11:42.436Z,0
2016-11-26T02:12:42.468Z,0
2016-11-26T02:13:42.460Z,0
2016-11-26T02:14:42.448Z,0
2016-11-26T02:15:42.441Z,0
2016-11-26T02:16:42.433Z,0
2016-11-26T02:17:42.451Z,0
2016-11-26T02:18:42.468Z,0
2016-11-26T02:19:42.507Z,0
2016-11-26T02:20:42.471Z,0
2016-11-26T02:21:42.471Z,0
2016-11-26T02:22:42.532Z,0
2016-11-26T02:23:42.460Z,0
2016-11-26T02:24:42.531Z,0
2016-11-26T02:25:42.506Z,0
2016-11-26T02:26:42.596Z,0
2016-11-26T02:27:42.489Z,0
2016-11-26T02:28:42.505Z,0
2016-11-26T02:29:42.488Z,0
2016-11-26T02:30:42.513Z,0
2016-11-26T02:31:42.518Z,0
2016-11-26T02:32:43.383Z,0
2016-11-26T02:33:42.515Z,0
2016-11-26T02:34:42.501Z,0
2016-11-26T02:35:42.516Z,0
2016-11-26T02:36:42.528Z,0
2016-11-26T02:37:42.545Z,0
2016-11-26T02:38:42.529Z,0
2016-11-26T02:39:42.492Z,0
2016-11-26T02:40:42.507Z,0
2016-11-26T02:41:42.512Z,0
2016-11-26T02:42:42.496Z,0
2016-11-26T02:43:42.521Z,0
2016-11-26T02:44:42.507Z,0
2016-11-26T02:45:42.500Z,0
2016-11-26T02:46:42.500Z,0
2016-11-26T02:47:42.495Z,0
2016-11-26T02:48:42.526Z,0
2016-11-26T02:49:42.482Z,0
2016-11-26T02:50:42.499Z,0
2016-11-26T02:51:42.484Z,0
2016-11-26T02:52:42.561Z,0
2016-11-26T02:53:42.612Z,0
2016-11-26T02:54:42.530Z,0
2016-11-26T02:55:42.559Z,0
2016-11-26T02:56:42.519Z,0
2016-11-26T02:57:42.518Z,0
2016-11-26T02:58:42.524Z,0
2016-11-26T02:59:42.516Z,0
2016-11-26T03:00:42.498Z,0
2016-11-26T03:01:42.538Z,0
2016-11-26T03:02:42.519Z,0
2016-11-26T03:03:42.541Z,0
2016-11-26T03:04:42.534Z,0
2016-11-26T03:05:42.566Z,0
2016-11-26T03:06:42.582Z,0
2016-11-26T03:07:42.566Z,0
2016-11-26T03:08:42.611Z,0
2016-11-26T03:09:42.509Z,0
2016-11-26T03:10:42.532Z,0
2016-11-26T03:11:42.515Z,0
2016-11-26T03:12:42.516Z,0
2016-11-26T03:13:42.537Z,0
2016-11-26T03:14:42.545Z,0
2016-11-26T03:15:42.551Z,0
2016-11-26T03:16:42.522Z,0
2016-11-26T03:17:42.573Z,0
2016-11-26T03:18:42.576Z,0
2016-11-26T03:19:42.516Z,0
2016-11-26T03:20:42.513Z,0
2016-11-26T03:21:42.506Z,0
2016-11-26T03:22:42.487Z,0
2016-11-26T03:23:42.571Z,0
2016-11-26T03:24:42.531Z,0
2016-11-26T03:25:42.606Z,0
2016-11-26T03:26:42.541Z,0
2016-11-26T03:27:42.620Z,0
2016-11-26T03:28:43.446Z,0
2016-11-26T03:29:43.849Z,0
2016-11-26T03:30:42.582Z,0
2016-11-26T03:31:42.504Z,0
2016-11-26T03:32:42.583Z,0
2016-11-26T03:33:42.595Z,0
2016-11-26T03:34:42.545Z,0
2016-11-26T03:35:42.572Z,0
2016-11-26T03:36:42.592Z,0
2016-11-26T03:37:42.557Z,0
2016-11-26T03:38:43.108Z,0
2016-11-26T03:39:58.768Z,0
2016-11-26T03:40:42.544Z,0
2016-11-26T03:41:42.550Z,0
2016-11-26T03:42:42.528Z,0
2016-11-26T03:43:42.590Z,0
2016-11-26T03:44:42.551Z,0
2016-11-26T03:45:42.577Z,0
2016-11-26T03:46:42.552Z,0
2016-11-26T03:47:42.563Z,0
2016-11-26T03:48:42.571Z,0
2016-11-26T03:49:42.544Z,0
2016-11-26T03:50:42.566Z,0
2016-11-26T03:51:42.535Z,0
2016-11-26T03:52:42.583Z,0
2016-11-26T03:53:44.772Z,0
2016-11-26T03:54:43.140Z,0
2016-11-26T03:55:42.580Z,0
2016-11-26T03:56:42.574Z,0
2016-11-26T03:57:42.548Z,0
2016-11-26T03:58:42.656Z,0
2016-11-26T03:59:42.563Z,0
2016-11-26T04:00:42.566Z,0
2016-11-26T04:01:42.572Z,0
2016-11-26T04:02:42.529Z,0
2016-11-26T04:03:42.606Z,0
2016-11-26T04:04:43.098Z,0
2016-11-26T04:05:42.529Z,0
2016-11-26T04:06:42.528Z,0
2016-11-26T04:07:42.533Z,0
2016-11-26T04:08:43.435Z,0
2016-11-26T04:09:42.557Z,0
2016-11-26T04:10:42.624Z,0
2016-11-26T04:11:42.636Z,0
2016-11-26T04:12:42.543Z,0
2016-11-26T04:13:42.557Z,0
2016-11-26T04:14:42.560Z,0
2016-11-26T04:15:42.568Z,0
2016-11-26T04:16:42.547Z,0
2016-11-26T04:17:42.554Z,0
2016-11-26T04:18:42.843Z,0
2016-11-26T04:19:42.560Z,0
2016-11-26T04:20:42.574Z,0
2016-11-26T04:21:42.566Z,0
2016-11-26T04:22:42.534Z,0
2016-11-26T04:23:42.590Z,0
2016-11-26T04:24:42.567Z,0
2016-11-26T04:25:42.552Z,0
2016-11-26T04:26:42.574Z,0
2016-11-26T04:27:42.575Z,0
2016-11-26T04:28:42.576Z,0
2016-11-26T04:29:42.541Z,0
2016-11-26T04:30:42.532Z,0
2016-11-26T04:31:42.538Z,0
2016-11-26T04:32:42.518Z,0
2016-11-26T04:33:42.572Z,0
2016-11-26T04:34:42.561Z,0
2016-11-26T04:35:42.543Z,0
2016-11-26T04:36:42.557Z,0
2016-11-26T04:37:42.564Z,0
2016-11-26T04:38:42.731Z,0
2016-11-26T04:39:42.569Z,0
2016-11-26T04:40:42.575Z,0
2016-11-26T04:41:42.606Z,0
2016-11-26T04:42:42.583Z,0
2016-11-26T04:43:42.598Z,0
2016-11-26T04:44:42.605Z,0
2016-11-26T04:45:42.577Z,0
2016-11-26T04:46:42.589Z,0
2016-11-26T04:47:42.612Z,0
2016-11-26T04:48:42.653Z,0
2016-11-26T04:49:42.624Z,0
2016-11-26T04:50:42.565Z,0
2016-11-26T04:51:42.602Z,0
2016-11-26T04:52:42.622Z,0
2016-11-26T04:53:42.602Z,0
2016-11-26T04:54:42.609Z,0
2016-11-26T04:55:42.601Z,0
2016-11-26T04:56:42.578Z,0
2016-11-26T04:57:42.547Z,0
2016-11-26T04:58:42.668Z,0
2016-11-26T04:59:42.599Z,0
2016-11-26T05:00:42.597Z,0
2016-11-26T05:01:42.609Z,0
2016-11-26T05:02:42.611Z,0
2016-11-26T05:03:42.587Z,0
2016-11-26T05:04:42.547Z,0
2016-11-26T05:05:42.584Z,0
2016-11-26T05:06:42.617Z,0
2016-11-26T05:07:42.605Z,0
2016-11-26T05:08:42.611Z,0
2016-11-26T05:09:42.589Z,0
2016-11-26T05:10:42.568Z,0
2016-11-26T05:11:42.584Z,0
2016-11-26T05:12:42.622Z,0
2016-11-26T05:13:42.600Z,0
2016-11-26T05:14:42.576Z,0
2016-11-26T05:15:42.574Z,0
2016-11-26T05:16:42.588Z,0
2016-11-26T05:17:42.585Z,0
2016-11-26T05:18:42.674Z,0
2016-11-26T05:19:42.584Z,0
2016-11-26T05:20:42.619Z,0
2016-11-26T05:21:42.571Z,0
2016-11-26T05:22:42.668Z,0
2016-11-26T05:23:42.587Z,0
2016-11-26T05:24:42.596Z,0
2016-11-26T05:25:42.588Z,0
2016-11-26T05:26:42.632Z,0
2016-11-26T05:27:42.584Z,0
2016-11-26T05:28:42.608Z,0
2016-11-26T05:29:42.571Z,0
2016-11-26T05:30:42.592Z,0
2016-11-26T05:31:42.650Z,0
2016-11-26T05:32:42.621Z,0
2016-11-26T05:33:42.569Z,0
2016-11-26T05:34:42.597Z,0
2016-11-26T05:35:42.575Z,0
2016-11-26T05:36:42.660Z,0
2016-11-26T05:37:42.575Z,0
2016-11-26T05:38:43.494Z,0
2016-11-26T05:39:42.581Z,0
2016-11-26T05:40:42.596Z,0
2016-11-26T05:41:42.668Z,0
2016-11-26T05:42:42.642Z,0
2016-11-26T05:43:42.621Z,0
2016-11-26T05:44:42.613Z,0
2016-11-26T05:45:42.604Z,0
2016-11-26T05:46:42.597Z,0
2016-11-26T05:47:42.576Z,0
2016-11-26T05:48:42.626Z,0
2016-11-26T05:49:42.629Z,0
2016-11-26T05:50:42.580Z,0
2016-11-26T05:51:42.596Z,0
2016-11-26T05:52:42.639Z,0
2016-11-26T05:53:42.623Z,0
2016-11-26T05:54:42.578Z,0
2016-11-26T05:55:42.581Z,0
2016-11-26T05:56:42.581Z,0
2016-11-26T05:57:42.605Z,0
2016-11-26T05:58:42.633Z,0
2016-11-26T05:59:42.594Z,0
2016-11-26T06:00:42.595Z,0
2016-11-26T06:01:42.631Z,0
2016-11-26T06:02:42.595Z,0
2016-11-26T06:03:42.716Z,0
2016-11-26T06:04:42.605Z,0
2016-11-26T06:05:42.674Z,0
2016-11-26T06:06:42.623Z,0
2016-11-26T06:07:42.645Z,0
2016-11-26T06:08:42.637Z,0
2016-11-26T06:09:42.626Z,0
2016-11-26T06:10:42.641Z,0
2016-11-26T06:11:42.709Z,0
2016-11-26T06:12:42.708Z,0
2016-11-26T06:13:42.640Z,0
2016-11-26T06:14:42.636Z,0
2016-11-26T06:15:42.639Z,0
2016-11-26T06:16:42.636Z,0
2016-11-26T06:17:42.637Z,0
2016-11-26T06:18:42.648Z,0
2016-11-26T06:19:42.640Z,0
2016-11-26T06:20:42.647Z,0
2016-11-26T06:21:42.656Z,0
2016-11-26T06:22:42.648Z,0
2016-11-26T06:23:42.661Z,0
2016-11-26T06:24:42.636Z,0
2016-11-26T06:25:42.611Z,0
2016-11-26T06:26:42.601Z,0
2016-11-26T06:27:42.588Z,0
2016-11-26T06:28:42.592Z,0
2016-11-26T06:29:42.687Z,0
2016-11-26T06:30:42.660Z,0
2016-11-26T06:31:42.648Z,0
2016-11-26T06:32:42.635Z,0
2016-11-26T06:33:42.691Z,0
2016-11-26T06:34:42.704Z,0
2016-11-26T06:35:42.674Z,0
2016-11-26T06:36:42.696Z,0
2016-11-26T06:37:42.687Z,0
2016-11-26T06:38:42.746Z,0
2016-11-26T06:39:42.683Z,0
2016-11-26T06:40:42.641Z,0
2016-11-26T06:41:42.697Z,0
2016-11-26T06:42:42.662Z,0
2016-11-26T06:43:42.680Z,0
2016-11-26T06:44:42.664Z,0
2016-11-26T06:45:42.670Z,0
2016-11-26T06:46:42.664Z,0
2016-11-26T06:47:42.632Z,0
2016-11-26T06:48:42.673Z,0
2016-11-26T06:49:42.674Z,0
2016-11-26T06:50:42.658Z,0
2016-11-26T06:51:42.631Z,0
2016-11-26T06:52:42.641Z,0
2016-11-26T06:53:42.673Z,0
2016-11-26T06:54:42.641Z,0
2016-11-26T06:55:42.670Z,0
2016-11-26T06:56:42.676Z,0
2016-11-26T06:57:42.737Z,0
2016-11-26T06:58:42.696Z,0
2016-11-26T06:59:42.651Z,0
2016-11-26T07:00:42.693Z,0
2016-11-26T07:01:42.671Z,0
2016-11-26T07:02:42.683Z,0
2016-11-26T07:03:42.671Z,0
2016-11-26T07:04:42.684Z,0
2016-11-26T07:05:42.655Z,5
2016-11-26T07:06:42.661Z,5
2016-11-26T07:07:42.688Z,5
2016-11-26T07:08:42.673Z,5
2016-11-26T07:09:42.685Z,5
2016-11-26T07:10:42.661Z,5
2016-11-26T07:11:42.672Z,5
2016-11-26T07:12:42.634Z,5
2016-11-26T07:13:42.690Z,5
2016-11-26T07:14:42.667Z,5
2016-11-26T07:15:42.665Z,5
2016-11-26T07:16:42.631Z,10
2016-11-26T07:17:42.653Z,10
2016-11-26T07:18:42.664Z,10
2016-11-26T07:19:42.662Z,10
2016-11-26T07:20:42.627Z,10
2016-11-26T07:21:42.638Z,10
2016-11-26T07:22:42.648Z,10
2016-11-26T07:23:42.668Z,15
2016-11-26T07:24:42.653Z,15
2016-11-26T07:25:42.685Z,15
2016-11-26T07:26:42.689Z,15
2016-11-26T07:27:42.657Z,15
2016-11-26T07:28:42.681Z,15
2016-11-26T07:29:42.667Z,15
2016-11-26T07:30:42.676Z,15
2016-11-26T07:31:42.663Z,20
2016-11-26T07:32:42.641Z,20
2016-11-26T07:33:42.647Z,20
2016-11-26T07:34:42.733Z,20
2016-11-26T07:35:42.654Z,20
2016-11-26T07:36:42.675Z,25
2016-11-26T07:37:42.631Z,25
2016-11-26T07:38:42.662Z,25
2016-11-26T07:39:42.665Z,25
2016-11-26T07:40:42.654Z,30
2016-11-26T07:41:42.652Z,30
2016-11-26T07:42:42.659Z,30
2016-11-26T07:43:42.668Z,30
2016-11-26T07:44:42.666Z,30
2016-11-26T07:45:42.649Z,35
2016-11-26T07:46:42.659Z,35
2016-11-26T07:47:42.705Z,35
2016-11-26T07:48:42.733Z,35
2016-11-26T07:49:42.755Z,40
2016-11-26T07:50:42.726Z,40
2016-11-26T07:51:42.687Z,40
2016-11-26T07:52:42.697Z,40
2016-11-26T07:53:42.745Z,45
2016-11-26T07:54:42.703Z,45
2016-11-26T07:55:42.694Z,45
2016-11-26T07:56:42.691Z,45
2016-11-26T07:57:42.734Z,45
2016-11-26T07:58:42.698Z,45
2016-11-26T07:59:42.711Z,50
2016-11-26T08:00:42.669Z,50
2016-11-26T08:01:42.886Z,55
2016-11-26T08:02:42.687Z,55
2016-11-26T08:03:42.726Z,55
2016-11-26T08:04:42.685Z,55
2016-11-26T08:05:42.702Z,55
2016-11-26T08:06:42.715Z,60
2016-11-26T08:07:42.694Z,65
2016-11-26T08:08:42.715Z,65
2016-11-26T08:09:42.657Z,65
2016-11-26T08:10:42.717Z,70
2016-11-26T08:11:42.707Z,70
2016-11-26T08:12:42.715Z,70
2016-11-26T08:13:42.715Z,75
2016-11-26T08:14:42.703Z,75
2016-11-26T08:15:42.689Z,75
2016-11-26T08:16:42.686Z,75
2016-11-26T08:17:42.698Z,75
2016-11-26T08:18:42.726Z,75
2016-11-26T08:19:42.698Z,75
2016-11-26T08:20:42.685Z,75
2016-11-26T08:21:42.683Z,75
2016-11-26T08:22:42.707Z,80
2016-11-26T08:23:42.743Z,80
2016-11-26T08:24:42.761Z,80
2016-11-26T08:25:42.772Z,75
2016-11-26T08:26:42.737Z,80
2016-11-26T08:27:42.743Z,75
2016-11-26T08:28:42.777Z,80
2016-11-26T08:29:42.777Z,80
2016-11-26T08:30:42.760Z,80
2016-11-26T08:31:42.746Z,80
2016-11-26T08:32:42.736Z,80
2016-11-26T08:33:42.827Z,80
2016-11-26T08:34:42.717Z,80
2016-11-26T08:35:42.810Z,80
2016-11-26T08:36:42.800Z,80
2016-11-26T08:37:42.861Z,80
2016-11-26T08:38:42.778Z,80
2016-11-26T08:39:43.400Z,80
2016-11-26T08:40:42.740Z,80
2016-11-26T08:41:42.747Z,80
2016-11-26T08:42:42.823Z,80
2016-11-26T08:43:42.766Z,80
2016-11-26T08:44:42.830Z,80
2016-11-26T08:45:46.758Z,85
2016-11-26T08:46:42.776Z,80
2016-11-26T08:47:42.791Z,80
2016-11-26T08:48:42.771Z,75
2016-11-26T08:49:42.748Z,75
2016-11-26T08:50:42.792Z,75
2016-11-26T08:51:42.827Z,70
2016-11-26T08:52:42.774Z,70
2016-11-26T08:53:42.781Z,70
2016-11-26T08:54:42.975Z,75
2016-11-26T08:55:42.816Z,80
2016-11-26T08:56:43.120Z,85
2016-11-26T08:57:42.758Z,85
2016-11-26T08:58:42.810Z,85
2016-11-26T08:59:43.318Z,85
2016-11-26T09:00:42.894Z,85
2016-11-26T09:01:43.288Z,90
2016-11-26T09:02:42.758Z,85
2016-11-26T09:03:42.780Z,85
2016-11-26T09:04:42.762Z,80
2016-11-26T09:05:42.765Z,80
2016-11-26T09:06:42.777Z,80
2016-11-26T09:07:42.738Z,85
2016-11-26T09:08:42.727Z,85
2016-11-26T09:09:45.817Z,85
2016-11-26T09:10:42.860Z,80
2016-11-26T09:11:42.779Z,80
2016-11-26T09:12:42.790Z,75
2016-11-26T09:13:42.763Z,80
2016-11-26T09:14:42.800Z,70
2016-11-26T09:15:42.758Z,70
2016-11-26T09:16:42.798Z,65
2016-11-26T09:17:42.732Z,65
2016-11-26T09:18:42.787Z,65
2016-11-26T09:19:42.770Z,65
2016-11-26T09:20:42.770Z,65
2016-11-26T09:21:43.365Z,70
2016-11-26T09:22:43.488Z,70
2016-11-26T09:23:43.464Z,75
2016-11-26T09:24:53.074Z,75
2016-11-26T09:25:43.087Z,75
2016-11-26T09:26:53.576Z,75
2016-11-26T09:27:53.686Z,80
2016-11-26T09:28:47.520Z,75
2016-11-26T09:29:45.596Z,75
2016-11-26T09:30:55.023Z,75
2016-11-26T09:31:48.036Z,75
2016-11-26T09:32:54.003Z,80
2016-11-26T09:33:51.910Z,80
2016-11-26T09:34:54.486Z,80
2016-11-26T09:35:54.658Z,85
2016-11-26T09:36:54.465Z,85
2016-11-26T09:37:55.189Z,85
2016-11-26T09:38:55.608Z,85
2016-11-26T09:39:55.547Z,85
2016-11-26T09:40:55.887Z,85
2016-11-26T09:41:56.843Z,90
2016-11-26T09:42:55.442Z,90
2016-11-26T09:43:56.086Z,90
2016-11-26T09:44:56.766Z,90
2016-11-26T09:45:53.598Z,90
2016-11-26T09:46:55.852Z,90
2016-11-26T09:47:55.049Z,90
2016-11-26T09:48:56.423Z,95
2016-11-26T09:49:55.860Z,100
2016-11-26T09:50:53.738Z,95
2016-11-26T09:51:50.972Z,95
2016-11-26T09:52:50.842Z,95
2016-11-26T09:53:50.840Z,100
2016-11-26T09:54:50.926Z,105
2016-11-26T09:55:53.503Z,110
2016-11-26T09:57:19.770Z,115
2016-11-26T09:57:42.850Z,115
2016-11-26T09:58:47.007Z,115
2016-11-26T09:59:45.250Z,110
2016-11-26T10:00:42.774Z,110
2016-11-26T10:01:43.330Z,110
2016-11-26T10:02:42.793Z,115
2016-11-26T10:03:42.809Z,115
2016-11-26T10:04:46.627Z,105
2016-11-26T10:05:43.209Z,105
2016-11-26T10:06:43.307Z,105
2016-11-26T10:07:42.738Z,105
2016-11-26T10:08:42.926Z,130
2016-11-26T10:09:43.579Z,120
2016-11-26T10:10:42.813Z,125
2016-11-26T10:11:42.835Z,120
2016-11-26T10:12:43.856Z,120
2016-11-26T10:13:43.355Z,130
2016-11-26T10:14:42.843Z,130
2016-11-26T10:15:42.863Z,115
2016-11-26T10:16:42.799Z,115
2016-11-26T10:17:43.782Z,120
2016-11-26T10:18:43.317Z,120
2016-11-26T10:19:43.048Z,120
2016-11-26T10:20:43.045Z,130
2016-11-26T10:21:49.856Z,135
2016-11-26T10:22:47.496Z,120
2016-11-26T10:23:43.295Z,125
2016-11-26T10:24:42.867Z,135
2016-11-26T10:25:43.403Z,140
2016-11-26T10:26:44.184Z,140
2016-11-26T10:27:44.579Z,140
2016-11-26T10:28:43.269Z,150
2016-11-26T10:29:42.807Z,150
2016-11-26T10:30:42.743Z,150
2016-11-26T10:31:43.322Z,145
2016-11-26T10:32:43.093Z,145
2016-11-26T10:33:43.496Z,145
2016-11-26T10:34:43.157Z,145
2016-11-26T10:35:43.065Z,150
2016-11-26T10:36:42.919Z,150
2016-11-26T10:37:43.357Z,155
2016-11-26T10:38:43.799Z,165
2016-11-26T10:39:43.164Z,155
2016-11-26T10:40:43.425Z,150
2016-11-26T10:41:42.842Z,145
2016-11-26T10:42:42.849Z,145
2016-11-26T10:43:43.295Z,140
2016-11-26T10:44:43.812Z,140
2016-11-26T10:45:43.107Z,140
2016-11-26T10:46:45.347Z,140
2016-11-26T10:47:42.920Z,135
2016-11-26T10:48:47.798Z,135
2016-11-26T10:49:43.273Z,135
2016-11-26T10:50:43.161Z,135
2016-11-26T10:51:42.819Z,130
2016-11-26T10:52:43.792Z,130
2016-11-26T10:53:42.804Z,130
2016-11-26T10:54:43.046Z,130
2016-11-26T10:55:42.813Z,130
2016-11-26T10:56:43.423Z,130
2016-11-26T10:57:42.843Z,125
2016-11-26T10:58:42.775Z,120
2016-11-26T10:59:42.757Z,120
2016-11-26T11:00:42.806Z,115
2016-11-26T11:01:42.827Z,110
2016-11-26T11:02:42.761Z,105
2016-11-26T11:03:42.953Z,100
2016-11-26T11:04:42.876Z,105
2016-11-26T11:05:43.268Z,95
2016-11-26T11:06:42.797Z,90
2016-11-26T11:07:44.925Z,90
2016-11-26T11:08:48.847Z,90
2016-11-26T11:09:43.689Z,90
2016-11-26T11:10:42.832Z,85
2016-11-26T11:11:42.892Z,85
2016-11-26T11:12:53.627Z,85
2016-11-26T11:13:42.867Z,80
2016-11-26T11:14:44.171Z,80
2016-11-26T11:15:43.049Z,85
2016-11-26T11:16:42.800Z,75
2016-11-26T11:17:42.918Z,80
2016-11-26T11:18:42.996Z,75
2016-11-26T11:19:43.626Z,75
2016-11-26T11:20:43.052Z,75
2016-11-26T11:21:42.862Z,75
2016-11-26T11:22:45.242Z,75
2016-11-26T11:23:43.574Z,75
2016-11-26T11:24:42.877Z,75
2016-11-26T11:25:43.108Z,75
2016-11-26T11:26:42.788Z,75
2016-11-26T11:27:43.757Z,75
2016-11-26T11:28:42.992Z,70
2016-11-26T11:29:44.596Z,70
2016-11-26T11:30:44.377Z,70
2016-11-26T11:31:42.823Z,70
2016-11-26T11:32:45.567Z,70
2016-11-26T11:33:42.803Z,65
2016-11-26T11:34:42.883Z,65
2016-11-26T11:35:42.906Z,65
2016-11-26T11:36:42.842Z,65
2016-11-26T11:37:42.845Z,65
2016-11-26T11:38:43.428Z,65
2016-11-26T11:39:42.836Z,65
2016-11-26T11:40:42.901Z,60
2016-11-26T11:41:42.833Z,60
2016-11-26T11:42:42.838Z,65
2016-11-26T11:43:42.845Z,65
2016-11-26T11:44:47.772Z,65
2016-11-26T11:45:42.828Z,65
2016-11-26T11:46:42.988Z,60
2016-11-26T11:47:42.812Z,60
2016-11-26T11:48:42.818Z,60
2016-11-26T11:49:42.871Z,60
2016-11-26T11:50:43.770Z,60
2016-11-26T11:51:43.817Z,65
2016-11-26T11:52:43.125Z,65
2016-11-26T11:53:44.103Z,65
2016-11-26T11:54:42.836Z,65
2016-11-26T11:55:47.679Z,65
2016-11-26T11:56:46.039Z,65
2016-11-26T11:57:48.760Z,65
2016-11-26T11:58:42.836Z,65
2016-11-26T11:59:45.248Z,65
2016-11-26T12:00:48.797Z,65
2016-11-26T12:01:43.817Z,65
2016-11-26T12:02:43.336Z,65
2016-11-26T12:03:44.642Z,65
2016-11-26T12:04:44.268Z,65
2016-11-26T12:05:42.795Z,65
2016-11-26T12:06:44.220Z,65
2016-11-26T12:07:48.558Z,65
2016-11-26T12:08:42.898Z,65
2016-11-26T12:09:43.304Z,70
2016-11-26T12:10:43.289Z,70
2016-11-26T12:11:42.818Z,70
2016-11-26T12:12:44.396Z,70
2016-11-26T12:13:43.707Z,70
2016-11-26T12:14:51.739Z,70
2016-11-26T12:15:43.506Z,70
2016-11-26T12:16:43.023Z,70
2016-11-26T12:17:44.092Z,70
2016-11-26T12:18:43.372Z,70
2016-11-26T12:19:49.293Z,75
2016-11-26T12:20:43.883Z,75
2016-11-26T12:21:42.973Z,75
2016-11-26T12:22:43.155Z,75
2016-11-26T12:23:46.770Z,75
2016-11-26T12:24:43.163Z,70
2016-11-26T12:25:43.068Z,75
2016-11-26T12:26:49.208Z,75
2016-11-26T12:27:50.041Z,75
2016-11-26T12:28:49.228Z,75
2016-11-26T12:29:43.885Z,75
2016-11-26T12:30:43.958Z,75
2016-11-26T12:31:43.451Z,75
2016-11-26T12:32:44.893Z,75
2016-11-26T12:33:56.333Z,80
2016-11-26T12:34:43.470Z,85
2016-11-26T12:35:51.824Z,85
2016-11-26T12:36:49.413Z,90
2016-11-26T12:37:42.886Z,90
2016-11-26T12:38:44.118Z,90
2016-11-26T12:39:45.629Z,90
2016-11-26T12:40:48.606Z,90
2016-11-26T12:41:47.168Z,90
2016-11-26T12:42:42.869Z,90
2016-11-26T12:43:50.589Z,90
2016-11-26T12:44:42.851Z,90
2016-11-26T12:45:42.868Z,90
2016-11-26T12:46:42.895Z,90
2016-11-26T12:47:42.838Z,85
2016-11-26T12:48:42.901Z,85
2016-11-26T12:49:42.901Z,90
2016-11-26T12:50:48.466Z,95
2016-11-26T12:51:42.844Z,95
2016-11-26T12:52:42.840Z,95
2016-11-26T12:53:43.107Z,95
2016-11-26T12:54:42.928Z,95
2016-11-26T12:55:42.885Z,95
2016-11-26T12:56:42.882Z,95
2016-11-26T12:57:46.459Z,90
2016-11-26T12:58:42.859Z,90
2016-11-26T12:59:43.289Z,90
2016-11-26T13:00:43.498Z,85
2016-11-26T13:01:43.243Z,85
2016-11-26T13:02:42.859Z,85
2016-11-26T13:03:46.254Z,85
2016-11-26T13:04:43.310Z,85
2016-11-26T13:05:43.816Z,85
2016-11-26T13:06:42.894Z,85
2016-11-26T13:07:43.931Z,80
2016-11-26T13:08:42.834Z,80
2016-11-26T13:09:42.864Z,80
2016-11-26T13:10:45.741Z,80
2016-11-26T13:11:50.630Z,80
2016-11-26T13:12:49.845Z,80
2016-11-26T13:13:43.233Z,80
2016-11-26T13:14:43.227Z,80
2016-11-26T13:15:42.930Z,80
2016-11-26T13:16:43.630Z,80
2016-11-26T13:17:43.785Z,80
2016-11-26T13:18:43.304Z,80
2016-11-26T13:19:44.031Z,75
2016-11-26T13:20:49.388Z,75
2016-11-26T13:21:43.136Z,75
2016-11-26T13:22:43.721Z,75
2016-11-26T13:23:44.827Z,75
2016-11-26T13:24:43.829Z,75
2016-11-26T13:25:45.979Z,75
2016-11-26T13:26:48.578Z,75
2016-11-26T13:27:46.644Z,75
2016-11-26T13:28:51.247Z,75
2016-11-26T13:29:47.517Z,75
2016-11-26T13:30:46.851Z,75
2016-11-26T13:31:49.101Z,75
2016-11-26T13:32:49.007Z,75
2016-11-26T13:33:47.661Z,75
2016-11-26T13:34:48.817Z,75
2016-11-26T13:35:49.228Z,75
2016-11-26T13:36:48.112Z,75
2016-11-26T13:37:48.729Z,75
2016-11-26T13:38:49.311Z,75
2016-11-26T13:39:55.141Z,75
2016-11-26T13:40:48.172Z,70
2016-11-26T13:41:42.937Z,70
2016-11-26T13:43:05.034Z,70
2016-11-26T13:43:49.525Z,70
2016-11-26T13:44:52.859Z,70
2016-11-26T13:45:43.051Z,70
2016-11-26T13:46:43.715Z,70
2016-11-26T13:47:47.762Z,70
2016-11-26T13:48:51.584Z,70
2016-11-26T13:49:52.765Z,70
2016-11-26T13:50:48.033Z,70
2016-11-26T13:51:48.099Z,70
2016-11-26T13:53:32.177Z,70
2016-11-26T13:53:54.535Z,70
2016-11-26T13:54:54.717Z,70
2016-11-26T13:55:57.335Z,70
2016-11-26T13:56:53.884Z,70
2016-11-26T13:57:53.769Z,65
2016-11-26T13:58:59.741Z,65
2016-11-26T13:59:56.151Z,65
2016-11-26T14:00:57.199Z,65
2016-11-26T14:01:55.023Z,65
2016-11-26T14:03:24.676Z,65
2016-11-26T14:03:56.022Z,65
2016-11-26T14:04:50.316Z,65
2016-11-26T14:05:49.469Z,65
2016-11-26T14:06:50.016Z,65
2016-11-26T14:07:51.472Z,65
2016-11-26T14:08:50.723Z,65
2016-11-26T14:09:49.838Z,65
2016-11-26T14:10:49.350Z,65
2016-11-26T14:11:49.350Z,65
2016-11-26T14:13:20.326Z,70
2016-11-26T14:13:56.704Z,70
2016-11-26T14:14:49.712Z,70
2016-11-26T14:15:49.447Z,70
2016-11-26T14:16:49.395Z,70
2016-11-26T14:17:49.721Z,70
2016-11-26T14:18:50.524Z,70
2016-11-26T14:19:53.717Z,70
2016-11-26T14:20:55.091Z,70
2016-11-26T14:21:54.699Z,65
2016-11-26T14:23:14.730Z,65
2016-11-26T14:23:53.492Z,65
2016-11-26T14:24:54.631Z,65
2016-11-26T14:25:54.703Z,65
2016-11-26T14:26:57.678Z,60
2016-11-26T14:27:53.028Z,60
2016-11-26T14:28:52.582Z,60